createdAt,value
2022-10-22T00:02:08.031Z,100878.19
2022-10-22T00:04:38.340Z,100881.91
2022-10-22T00:07:07.633Z,100889.28
2022-10-22T00:09:36.908Z,100876.47
2022-10-22T00:12:07.525Z,100886.47
2022-10-22T00:14:36.931Z,100896.63
2022-10-22T00:17:10.570Z,100907.63
2022-10-22T00:19:41.051Z,100890.16
2022-10-22T00:22:10.808Z,100891.31
2022-10-22T00:24:42.017Z,100889.19
2022-10-22T00:27:13.344Z,100892.38
2022-10-22T00:29:44.011Z,100836.78
2022-10-22T00:32:13.344Z,100893.94
2022-10-22T00:34:42.663Z,100887.03
2022-10-22T00:37:11.975Z,100888.28
2022-10-22T00:39:41.371Z,100889.88
2022-10-22T00:42:14.421Z,100884.22
2022-10-22T00:45:05.507Z,100882.94
2022-10-22T00:47:41.915Z,100880.91
2022-10-22T00:50:37.336Z,100877.63
2022-10-22T00:53:11.614Z,100878.88
2022-10-22T00:55:42.860Z,100879.31
2022-10-22T00:58:12.894Z,100875.16
2022-10-22T01:00:42.633Z,100880.81
2022-10-22T01:03:11.997Z,100881.72
2022-10-22T01:06:00.961Z,100889.88
2022-10-22T01:08:48.143Z,100894.38
2022-10-22T01:11:38.723Z,100896.19
2022-10-22T01:14:32.275Z,100887.38
2022-10-22T01:17:09.470Z,100882.50
2022-10-22T01:19:53.736Z,100881.72
2022-10-22T01:22:27.667Z,100880.47
2022-10-22T01:25:32.650Z,100872.53
2022-10-22T01:28:30.903Z,100884.22
2022-10-22T01:31:02.428Z,100882.25
2022-10-22T01:33:33.562Z,100889.63
2022-10-22T01:36:03.771Z,100878.75
2022-10-22T01:38:34.239Z,100878.75
2022-10-22T01:41:11.136Z,100879.09
2022-10-22T01:43:40.499Z,100875.59
2022-10-22T01:46:13.075Z,100869.13
2022-10-22T01:48:42.313Z,100884.84
2022-10-22T01:51:42.793Z,100878.06
2022-10-22T01:54:37.479Z,100878.06
2022-10-22T01:57:20.681Z,100866.75
2022-10-22T01:59:52.897Z,100860.63
2022-10-22T02:02:52.166Z,100867.53
2022-10-22T02:05:36.255Z,100867.97
2022-10-22T02:08:13.061Z,100868.88
2022-10-22T02:10:45.709Z,100861.66
2022-10-22T02:13:20.884Z,100869.56
2022-10-22T02:15:54.701Z,100871.16
2022-10-22T02:18:31.093Z,100866.75
2022-10-22T02:21:02.593Z,100874.78
2022-10-22T02:23:32.323Z,100873.28
2022-10-22T02:26:09.586Z,100864.78
2022-10-22T02:29:01.008Z,100874.19
2022-10-22T02:31:39.683Z,100864.13
2022-10-22T02:34:14.663Z,100874.19
2022-10-22T02:36:49.567Z,100867.06
2022-10-22T02:39:21.704Z,100865.81
2022-10-22T02:41:51.664Z,100853.69
2022-10-22T02:44:24.120Z,100871.94
2022-10-22T02:46:53.883Z,100872.16
2022-10-22T02:49:23.242Z,100872.84
2022-10-22T02:51:52.534Z,100873.97
2022-10-22T02:54:21.817Z,100867.84
2022-10-22T02:56:51.128Z,100872.72
2022-10-22T02:59:20.430Z,100868.75
2022-10-22T03:01:49.722Z,100866.03
2022-10-22T03:04:19.006Z,100869.56
2022-10-22T03:06:49.144Z,100868.75
2022-10-22T03:09:21.334Z,100875.31
2022-10-22T03:11:54.217Z,100877.59
2022-10-22T03:14:24.212Z,100875.88
2022-10-22T03:16:53.486Z,100871.94
2022-10-22T03:19:22.779Z,100869.56
2022-10-22T03:21:56.341Z,100860.47
2022-10-22T03:24:33.312Z,100855.84
2022-10-22T03:27:02.669Z,100876.09
2022-10-22T03:29:34.372Z,100882.44
2022-10-22T03:32:03.694Z,100879.97
2022-10-22T03:34:33.011Z,100881.66
2022-10-22T03:37:05.342Z,100896.63
2022-10-22T03:39:35.888Z,100888.56
2022-10-22T03:42:06.715Z,100901.16
2022-10-22T03:44:36.279Z,100897.97
2022-10-22T03:47:05.591Z,100904.00
2022-10-22T03:49:35.037Z,100909.72
2022-10-22T03:52:12.203Z,100904.88
2022-10-22T03:54:42.548Z,100919.81
2022-10-22T03:57:12.895Z,100923.56
2022-10-22T03:59:45.175Z,100916.75
2022-10-22T04:02:16.602Z,100920.13
2022-10-22T04:04:46.116Z,100914.00
2022-10-22T04:07:15.559Z,100922.41
2022-10-22T04:09:44.870Z,100927.97
2022-10-22T04:12:14.183Z,100929.31
2022-10-22T04:14:43.530Z,100927.16
2022-10-22T04:17:12.810Z,100931.94
2022-10-22T04:19:42.187Z,100927.50
2022-10-22T04:22:11.474Z,100935.91
2022-10-22T04:24:40.925Z,100932.72
2022-10-22T04:27:10.247Z,100937.16
2022-10-22T04:29:39.602Z,100938.03
2022-10-22T04:32:08.883Z,100937.81
2022-10-22T04:34:38.147Z,100935.84
2022-10-22T04:37:07.560Z,100933.03
2022-10-22T04:39:36.838Z,100931.44
2022-10-22T04:42:06.634Z,100931.44
2022-10-22T04:44:36.062Z,100930.31
2022-10-22T04:47:05.371Z,100934.50
2022-10-22T04:49:34.696Z,100931.19
2022-10-22T04:52:03.991Z,100934.81
2022-10-22T04:54:33.337Z,100928.47
2022-10-22T04:57:02.751Z,100937.31
2022-10-22T04:59:35.050Z,100934.13
2022-10-22T05:02:04.348Z,100943.50
2022-10-22T05:04:33.596Z,100940.31
2022-10-22T05:07:02.830Z,100947.59
2022-10-22T05:09:35.008Z,100944.75
2022-10-22T05:12:04.343Z,100947.22
2022-10-22T05:14:33.719Z,100947.22
2022-10-22T05:17:03.044Z,100956.97
2022-10-22T05:19:34.034Z,100955.38
2022-10-22T05:22:06.153Z,100965.09
2022-10-22T05:24:37.558Z,100961.03
2022-10-22T05:27:07.118Z,100959.91
2022-10-22T05:29:36.530Z,100958.66
2022-10-22T05:32:06.038Z,100956.53
2022-10-22T05:34:36.250Z,100960.47
2022-10-22T05:37:05.671Z,100962.09
2022-10-22T05:39:36.912Z,100954.41
2022-10-22T05:42:06.812Z,100956.78
2022-10-22T05:44:36.169Z,100957.56
2022-10-22T05:47:05.438Z,100962.78
2022-10-22T05:49:34.741Z,100961.63
2022-10-22T05:52:04.044Z,100960.72
2022-10-22T05:54:33.291Z,100967.28
2022-10-22T05:57:02.542Z,100969.69
2022-10-22T05:59:31.859Z,100966.28
2022-10-22T06:02:01.175Z,100978.22
2022-10-22T06:04:30.446Z,100982.91
2022-10-22T06:06:59.746Z,100981.44
2022-10-22T06:09:33.293Z,100977.53
2022-10-22T06:12:02.957Z,100987.06
2022-10-22T06:14:34.948Z,100984.91
2022-10-22T06:17:04.407Z,100994.81
2022-10-22T06:19:33.748Z,100997.78
2022-10-22T06:22:03.081Z,101004.94
2022-10-22T06:24:32.661Z,101005.16
2022-10-22T06:27:02.089Z,101013.09
2022-10-22T06:29:31.514Z,101004.41
2022-10-22T06:32:00.839Z,101005.47
2022-10-22T06:34:30.262Z,101016.69
2022-10-22T06:37:01.964Z,101021.69
2022-10-22T06:39:31.266Z,101015.13
2022-10-22T06:42:00.657Z,101030.31
2022-10-22T06:44:36.687Z,101036.66
2022-10-22T06:47:06.026Z,101031.81
2022-10-22T06:49:35.458Z,101035.22
2022-10-22T06:52:04.776Z,101046.91
2022-10-22T06:54:34.093Z,101055.75
2022-10-22T06:57:03.521Z,101055.66
2022-10-22T06:59:32.875Z,101060.84
2022-10-22T07:02:05.127Z,101064.38
2022-10-22T07:04:34.927Z,101072.31
2022-10-22T07:07:04.246Z,101068.56
2022-10-22T07:09:33.559Z,101075.41
2022-10-22T07:12:02.865Z,101078.56
2022-10-22T07:14:34.884Z,101078.22
2022-10-22T07:17:04.239Z,101079.56
2022-10-22T07:19:33.554Z,101082.53
2022-10-22T07:22:02.910Z,101087.06
2022-10-22T07:24:35.226Z,101093.78
2022-10-22T07:27:07.018Z,101090.84
2022-10-22T07:29:38.797Z,101098.78
2022-10-22T07:32:08.432Z,101096.97
2022-10-22T07:34:40.537Z,101103.03
2022-10-22T07:37:12.544Z,101099.66
2022-10-22T07:39:41.840Z,101104.97
2022-10-22T07:42:11.128Z,101110.38
2022-10-22T07:44:40.406Z,101108.56
2022-10-22T07:47:09.739Z,101121.25
2022-10-22T07:49:39.093Z,101121.00
2022-10-22T07:52:10.286Z,101126.41
2022-10-22T07:54:39.587Z,101134.50
2022-10-22T07:57:08.893Z,101133.44
2022-10-22T07:59:38.262Z,101140.28
2022-10-22T08:02:07.566Z,101136.69
2022-10-22T08:04:36.858Z,101145.91
2022-10-22T08:07:06.198Z,101147.22
2022-10-22T08:09:35.661Z,101139.38
2022-10-22T08:12:04.947Z,101155.25
2022-10-22T08:14:34.237Z,101152.16
2022-10-22T08:17:03.478Z,101150.47
2022-10-22T08:19:33.091Z,101157.31
2022-10-22T08:22:02.383Z,101162.88
2022-10-22T08:24:31.904Z,101168.69
2022-10-22T08:27:01.189Z,101173.72
2022-10-22T08:29:30.607Z,101168.16
2022-10-22T08:31:59.886Z,101176.91
2022-10-22T08:34:29.172Z,101179.53
2022-10-22T08:36:58.507Z,101175.50
2022-10-22T08:39:27.838Z,101170.22
2022-10-22T08:42:09.539Z,101171.94
2022-10-22T08:45:00.359Z,101181.34
2022-10-22T08:47:41.721Z,101187.53
2022-10-22T08:50:15.637Z,101189.16
2022-10-22T08:52:50.598Z,101188.56
2022-10-22T08:55:20.232Z,101183.34
2022-10-22T08:57:52.196Z,101182.56
2022-10-22T09:00:33.888Z,101189.84
2022-10-22T09:03:20.911Z,101195.59
2022-10-22T09:06:08.461Z,101188.28
2022-10-22T09:08:39.079Z,101205.72
2022-10-22T09:11:22.618Z,101214.56
2022-10-22T09:13:54.089Z,101217.06
2022-10-22T09:16:38.684Z,101228.81
2022-10-22T09:19:13.998Z,101226.28
2022-10-22T09:22:02.282Z,101224.38
2022-10-22T09:24:57.710Z,101232.34
2022-10-22T09:27:33.040Z,101233.94
2022-10-22T09:30:04.229Z,101230.59
2022-10-22T09:32:35.068Z,101242.19
2022-10-22T09:35:04.381Z,101244.75
2022-10-22T09:37:33.698Z,101241.25
2022-10-22T09:40:09.431Z,101240.47
2022-10-22T09:42:39.037Z,101250.91
2022-10-22T09:45:09.535Z,101257.44
2022-10-22T09:48:00.976Z,101252.69
2022-10-22T09:50:48.423Z,101252.34
2022-10-22T09:53:45.735Z,101263.13
2022-10-22T09:56:36.495Z,101256.63
2022-10-22T09:59:06.635Z,101280.56
2022-10-22T10:01:40.956Z,101283.09
2022-10-22T10:04:16.677Z,101292.28
2022-10-22T10:06:47.387Z,101296.72
2022-10-22T10:09:21.807Z,101299.25
2022-10-22T10:12:02.467Z,101300.66
2022-10-22T10:14:45.947Z,101291.78
2022-10-22T10:17:25.514Z,101299.19
2022-10-22T10:20:06.005Z,101301.19
2022-10-22T10:23:17.392Z,101298.34
2022-10-22T10:26:21.030Z,101311.97
2022-10-22T10:29:01.194Z,101318.34
2022-10-22T10:31:47.909Z,101303.75
2022-10-22T10:34:49.231Z,101310.84
2022-10-22T10:37:27.678Z,101332.78
2022-10-22T10:40:21.839Z,101315.16
2022-10-22T10:43:03.242Z,101325.78
2022-10-22T10:45:55.727Z,101335.47
2022-10-22T10:48:40.515Z,101324.69
2022-10-22T10:51:38.210Z,101326.28
2022-10-22T10:54:29.720Z,101328.16
2022-10-22T10:57:23.414Z,101330.41
2022-10-22T11:00:02.958Z,101333.41
2022-10-22T11:02:51.081Z,101336.91
2022-10-22T11:05:44.599Z,101326.91
2022-10-22T11:08:27.938Z,101333.28
2022-10-22T11:11:06.520Z,101325.63
2022-10-22T11:13:49.489Z,101327.06
2022-10-22T11:16:39.759Z,101322.34
2022-10-22T11:19:33.374Z,101332.63
2022-10-22T11:22:17.788Z,101340.38
2022-10-22T11:24:57.794Z,101336.22
2022-10-22T11:27:42.446Z,101339.09
2022-10-22T11:30:24.085Z,101322.50
2022-10-22T11:33:00.011Z,101336.94
2022-10-22T11:35:35.529Z,101339.00
2022-10-22T11:38:09.752Z,101334.63
2022-10-22T11:41:00.404Z,101338.47
2022-10-22T11:43:55.006Z,101315.09
2022-10-22T11:46:24.403Z,101324.97
2022-10-22T11:49:08.581Z,101328.72
2022-10-22T11:51:43.941Z,101326.88
2022-10-22T11:54:34.931Z,101326.88
2022-10-22T11:57:19.438Z,101322.41
2022-10-22T11:59:58.848Z,101315.88
2022-10-22T12:02:31.320Z,101323.59
2022-10-22T12:05:20.624Z,101324.75
2022-10-22T12:08:00.719Z,101330.28
2022-10-22T12:10:36.726Z,101314.13
2022-10-22T12:13:27.411Z,101324.22
2022-10-22T12:16:04.545Z,101330.91
2022-10-22T12:18:45.403Z,101313.31
2022-10-22T12:21:17.110Z,101331.19
2022-10-22T12:23:46.907Z,101327.69
2022-10-22T12:26:34.915Z,101328.91
2022-10-22T12:29:09.145Z,101324.91
2022-10-22T12:31:41.008Z,101326.00
2022-10-22T12:34:10.465Z,101327.78
2022-10-22T12:36:39.759Z,101330.78
2022-10-22T12:39:16.549Z,101338.91
2022-10-22T12:41:46.138Z,101331.41
2022-10-22T12:44:18.054Z,101327.97
2022-10-22T12:46:53.099Z,101332.94
2022-10-22T12:49:31.615Z,101325.50
2022-10-22T12:52:07.676Z,101333.91
2022-10-22T12:54:39.163Z,101333.25
2022-10-22T12:57:08.866Z,101336.78
2022-10-22T12:59:44.736Z,101335.69
2022-10-22T13:02:29.030Z,101336.69
2022-10-22T13:05:17.862Z,101340.84
2022-10-22T13:07:53.326Z,101339.25
2022-10-22T13:10:30.285Z,101335.44
2022-10-22T13:13:03.293Z,101324.81
2022-10-22T13:15:39.536Z,101343.66
2022-10-22T13:18:19.850Z,101344.66
2022-10-22T13:21:05.914Z,101337.13
2022-10-22T13:23:36.923Z,101328.16
2022-10-22T13:26:18.392Z,101342.88
2022-10-22T13:28:57.105Z,101344.09
2022-10-22T13:31:29.080Z,101332.47
2022-10-22T13:34:03.696Z,101336.47
2022-10-22T13:36:37.295Z,101333.28
2022-10-22T13:39:07.997Z,101341.00
2022-10-22T13:41:41.692Z,101339.09
2022-10-22T13:44:11.021Z,101307.81
2022-10-22T13:46:42.973Z,101329.09
2022-10-22T13:49:19.313Z,101334.84
2022-10-22T13:51:50.757Z,101333.59
2022-10-22T13:54:26.544Z,101339.19
2022-10-22T13:56:55.850Z,101331.66
2022-10-22T13:59:25.135Z,101340.69
2022-10-22T14:01:57.041Z,101342.56
2022-10-22T14:04:26.466Z,101344.81
2022-10-22T14:06:57.697Z,101343.25
2022-10-22T14:09:31.813Z,101336.13
2022-10-22T14:12:01.122Z,101329.28
2022-10-22T14:14:30.378Z,101337.13
2022-10-22T14:16:59.696Z,101335.75
2022-10-22T14:19:28.979Z,101327.63
2022-10-22T14:22:00.317Z,101330.97
2022-10-22T14:24:31.955Z,101339.88
2022-10-22T14:27:01.256Z,101338.47
2022-10-22T14:29:30.547Z,101332.81
2022-10-22T14:31:59.891Z,101341.94
2022-10-22T14:34:29.160Z,101333.34
2022-10-22T14:36:58.685Z,101340.84
2022-10-22T14:39:27.985Z,101324.38
2022-10-22T14:41:57.384Z,101334.69
2022-10-22T14:44:26.737Z,101338.72
2022-10-22T14:46:56.349Z,101346.16
2022-10-22T14:49:25.649Z,101343.16
2022-10-22T14:51:54.943Z,101345.22
2022-10-22T14:54:24.301Z,101352.41
2022-10-22T14:56:53.667Z,101357.94
2022-10-22T14:59:22.924Z,101361.75
2022-10-22T15:01:52.195Z,101357.28
2022-10-22T15:04:21.655Z,101356.03
2022-10-22T15:06:50.957Z,101359.19
2022-10-22T15:09:20.312Z,101369.69
2022-10-22T15:11:49.586Z,101367.13
2022-10-22T15:14:18.894Z,101370.47
2022-10-22T15:16:48.280Z,101373.63
2022-10-22T15:19:17.611Z,101377.28
2022-10-22T15:21:46.941Z,101372.19
2022-10-22T15:24:16.985Z,101379.34
2022-10-22T15:26:46.334Z,101376.34
2022-10-22T15:29:15.660Z,101384.91
2022-10-22T15:31:52.643Z,101388.44
2022-10-22T15:34:24.935Z,101392.59
2022-10-22T15:36:54.699Z,101401.19
2022-10-22T15:39:23.963Z,101392.94
2022-10-22T15:41:54.042Z,101400.09
2022-10-22T15:44:26.169Z,101393.72
2022-10-22T15:46:56.807Z,101394.06
2022-10-22T15:49:30.260Z,101388.84
2022-10-22T15:51:59.739Z,101398.16
2022-10-22T15:54:32.952Z,101388.31
2022-10-22T15:57:08.720Z,101391.47
2022-10-22T15:59:38.625Z,101392.28
2022-10-22T16:02:07.957Z,101386.88
2022-10-22T16:04:37.304Z,101398.59
2022-10-22T16:07:06.694Z,101385.56
2022-10-22T16:09:36.167Z,101383.16
2022-10-22T16:12:05.641Z,101389.31
2022-10-22T16:14:35.068Z,101387.19
2022-10-22T16:17:04.532Z,101395.84
2022-10-22T16:19:33.937Z,101386.94
2022-10-22T16:22:03.664Z,101385.91
2022-10-22T16:24:33.055Z,101392.38
2022-10-22T16:27:04.814Z,101388.66
2022-10-22T16:29:34.253Z,101376.41
2022-10-22T16:32:03.553Z,101392.63
2022-10-22T16:34:32.964Z,101388.28
2022-10-22T16:37:10.171Z,101385.47
2022-10-22T16:39:40.189Z,101390.75
2022-10-22T16:42:09.470Z,101383.38
2022-10-22T16:44:38.762Z,101397.09
2022-10-22T16:47:08.073Z,101394.59
2022-10-22T16:49:37.356Z,101399.78
2022-10-22T16:52:06.796Z,101405.25
2022-10-22T16:54:36.076Z,101411.63
2022-10-22T16:57:05.344Z,101422.00
2022-10-22T16:59:34.675Z,101415.75
2022-10-22T17:04:53.181Z,101421.53
2022-10-22T17:07:22.457Z,101410.81
2022-10-22T17:09:51.838Z,101414.25
2022-10-22T17:12:21.129Z,101423.81
2022-10-22T17:14:51.163Z,101422.78
2022-10-22T17:17:20.668Z,101434.25
2022-10-22T17:19:49.910Z,101428.81
2022-10-22T17:22:19.549Z,101429.81
2022-10-22T17:24:48.878Z,101426.84
2022-10-22T17:27:18.182Z,101429.00
2022-10-22T17:29:47.435Z,101432.72
2022-10-22T17:32:16.703Z,101432.94
2022-10-22T17:34:45.962Z,101424.97
2022-10-22T17:37:15.246Z,101429.19
2022-10-22T17:39:44.517Z,101419.63
2022-10-22T17:42:13.826Z,101432.13
2022-10-22T17:44:43.103Z,101432.13
2022-10-22T17:47:12.402Z,101429.03
2022-10-22T17:49:41.696Z,101442.44
2022-10-22T17:52:11.484Z,101434.47
2022-10-22T17:54:40.795Z,101423.31
2022-10-22T17:57:10.550Z,101432.00
2022-10-22T17:59:39.804Z,101426.84
2022-10-22T18:02:09.783Z,101431.84
2022-10-22T18:04:39.100Z,101431.16
2022-10-22T18:07:08.424Z,101432.84
2022-10-22T18:09:37.746Z,101437.03
2022-10-22T18:12:07.231Z,101446.88
2022-10-22T18:14:36.710Z,101439.63
2022-10-22T18:17:06.310Z,101448.22
2022-10-22T18:19:35.635Z,101449.47
2022-10-22T18:22:05.800Z,101449.09
2022-10-22T18:24:35.064Z,101451.22
2022-10-22T18:27:04.361Z,101448.94
2022-10-22T18:29:33.602Z,101453.91
2022-10-22T18:32:08.332Z,101446.63
2022-10-22T18:34:41.564Z,101435.75
2022-10-22T18:37:10.931Z,101448.41
2022-10-22T18:39:40.174Z,101453.72
2022-10-22T18:42:09.458Z,101450.22
2022-10-22T18:44:38.952Z,101443.09
2022-10-22T18:47:08.751Z,101441.94
2022-10-22T18:49:38.129Z,101439.19
2022-10-22T18:52:07.493Z,101449.22
2022-10-22T18:54:37.624Z,101456.94
2022-10-22T18:57:06.974Z,101461.09
2022-10-22T18:59:36.253Z,101457.09
2022-10-22T19:02:05.589Z,101451.44
2022-10-22T19:04:37.112Z,101452.34
2022-10-22T19:09:39.317Z,101447.16
2022-10-22T19:12:09.085Z,101430.41
2022-10-22T19:14:38.991Z,101438.81
2022-10-22T19:17:08.261Z,101440.16
2022-10-22T19:19:37.698Z,101437.78
2022-10-22T19:22:06.963Z,101427.94
2022-10-22T19:24:36.230Z,101426.94
2022-10-22T19:27:05.544Z,101422.25
2022-10-22T19:29:34.986Z,101423.91
2022-10-22T19:32:04.347Z,101417.47
2022-10-22T19:34:33.773Z,101411.81
2022-10-22T19:37:03.248Z,101413.47
2022-10-22T19:39:32.568Z,101415.91
2022-10-22T19:42:04.191Z,101423.66
2022-10-22T19:44:33.540Z,101421.59
2022-10-22T19:47:02.801Z,101432.09
2022-10-22T19:49:32.146Z,101428.94
2022-10-22T19:52:01.567Z,101430.63
2022-10-22T19:54:30.859Z,101428.94
2022-10-22T19:57:00.178Z,101429.72
2022-10-22T19:59:31.437Z,101429.72
2022-10-22T20:02:01.522Z,101429.72
2022-10-22T20:04:30.849Z,101424.41
2022-10-22T20:07:00.150Z,101415.91
2022-10-22T20:09:29.472Z,101412.81
2022-10-22T20:11:58.789Z,101423.97
2022-10-22T20:14:28.083Z,101424.81
2022-10-22T20:16:57.423Z,101425.69
2022-10-22T20:19:29.292Z,101421.97
2022-10-22T20:24:29.024Z,101426.47
2022-10-22T20:26:58.360Z,101425.69
2022-10-22T20:29:27.640Z,101425.75
2022-10-22T20:31:56.938Z,101434.19
2022-10-22T20:34:26.167Z,101436.16
2022-10-22T20:36:55.443Z,101423.19
2022-10-22T20:39:24.740Z,101428.38
2022-10-22T20:41:54.163Z,101431.94
2022-10-22T20:44:23.507Z,101435.97
2022-10-22T20:46:54.465Z,101422.16
2022-10-22T20:49:24.205Z,101425.91
2022-10-22T20:51:53.530Z,101427.03
2022-10-22T20:54:22.867Z,101433.50
2022-10-22T20:56:52.519Z,101436.69
2022-10-22T20:59:22.350Z,101437.50
2022-10-22T21:01:54.215Z,101446.38
2022-10-22T21:04:24.188Z,101438.28
2022-10-22T21:06:53.628Z,101445.13
2022-10-22T21:09:23.668Z,101439.81
2022-10-22T21:14:24.813Z,101437.78
2022-10-22T21:16:54.587Z,101437.78
2022-10-22T21:19:25.356Z,101440.63
2022-10-22T21:21:55.816Z,101440.97
2022-10-22T21:24:26.431Z,101434.59
2022-10-22T21:26:56.108Z,101424.81
2022-10-22T21:29:25.448Z,101433.69
2022-10-22T21:31:55.390Z,101431.31
2022-10-22T21:34:24.661Z,101436.63
2022-10-22T21:36:54.006Z,101433.34
2022-10-22T21:39:23.271Z,101442.28
2022-10-22T21:41:52.646Z,101438.72
2022-10-22T21:44:21.912Z,101439.09
2022-10-22T21:46:51.201Z,101433.41
2022-10-22T21:49:20.495Z,101440.78
2022-10-22T21:51:49.837Z,101432.88
2022-10-22T21:54:19.238Z,101426.75
2022-10-22T21:56:49.070Z,101411.66
2022-10-22T21:59:18.335Z,101427.19
2022-10-22T22:01:47.634Z,101409.81
2022-10-22T22:04:16.927Z,101416.38
2022-10-22T22:06:46.208Z,101424.50
2022-10-22T22:09:15.535Z,101430.63
2022-10-22T22:11:44.852Z,101428.69
2022-10-22T22:14:15.119Z,101430.78
2022-10-22T22:16:44.426Z,101431.50
2022-10-22T22:19:13.713Z,101433.47
2022-10-22T22:21:44.019Z,101415.09
2022-10-22T22:24:15.424Z,101427.06
2022-10-22T22:26:44.722Z,101416.78
2022-10-22T22:29:14.067Z,101419.97
2022-10-22T22:31:43.630Z,101436.38
2022-10-22T22:34:15.485Z,101425.84
2022-10-22T22:36:49.430Z,101427.44
2022-10-22T22:39:22.660Z,101425.75
2022-10-22T22:41:52.574Z,101427.44
2022-10-22T22:44:21.871Z,101415.72
2022-10-22T22:46:51.155Z,101412.34
2022-10-22T22:49:20.507Z,101417.16
2022-10-22T22:51:51.284Z,101421.38
2022-10-22T22:54:20.572Z,101420.06
2022-10-22T22:56:52.403Z,101418.72
2022-10-22T22:59:21.686Z,101412.69
2022-10-22T23:01:52.395Z,101404.19
2022-10-22T23:04:23.872Z,101402.97
2022-10-22T23:06:54.204Z,101396.94
2022-10-22T23:09:23.930Z,101405.00
2022-10-22T23:11:53.661Z,101398.53
2022-10-22T23:14:23.436Z,101398.53
2022-10-22T23:16:54.114Z,101382.41
2022-10-22T23:19:25.552Z,101385.63
2022-10-22T23:21:57.357Z,101374.44
2022-10-22T23:24:29.253Z,101366.44
2022-10-22T23:27:02.368Z,101369.28
2022-10-22T23:29:35.794Z,101355.81
2022-10-22T23:32:07.325Z,101369.72
2022-10-22T23:34:36.648Z,101381.88
2022-10-22T23:37:05.972Z,101392.31
2022-10-22T23:39:35.443Z,101394.78
2022-10-22T23:42:04.736Z,101389.19
2022-10-22T23:44:34.084Z,101397.41
2022-10-22T23:47:03.423Z,101400.03
2022-10-22T23:49:32.702Z,101385.59
2022-10-22T23:52:02.007Z,101395.78
2022-10-22T23:54:31.269Z,101395.78
2022-10-22T23:57:00.529Z,101386.03
2022-10-22T23:59:29.803Z,101387.28
